KAAO

Colonel James Jabara Airport

Wichita, Kansas, USA
METAR KAAO 201254Z AUTO 17005KT 10SM CLR M11/M12 A3027 RMK AO2 SLP276 T11111122
Observed Flight Rules
Jan-20 @ 12:54 UTC (28 minutes ago) Visual Flight Rules
Wind Visibility Clouds
170° at 5 knots 10 miles
  • Clear skies
Temperatures Readings
Current -11°C / 12°F
Dewpoint -12°C / 10°F
Humidity 92%
Altimeter 30.27" Hg
Pressure 1027.6 hPa
Elevation 434
METAR KAAO 201254Z AUTO 17005KT 10SM CLR M11/M12 A3027 RMK AO2 SLP276 T11111122
Observed Flight Rules
Jan-20 @ 12:54 UTC
(28 minutes ago)
VFR
Wind Visibility
170° at 5 knots 10 miles
Clouds
  • Clear skies
Temperature Dewpoint
-11°C / 12°F -12°C / 10°F
Humidity Altimeter Pressure
92% 30.27" Hg 1027.6 hPa